Time;durP1;ratioP1;P1;durP2;ratioP2;P2;SDS_P1;SDS_P2;PMS_P1;PMS_P2;Temp;Humidity;BMP_temperature;BMP_pressure;BME280_temperature;BME280_humidity;BME280_pressure;Samples;Min_cycle;Max_cycle;Signal;HPM_P1;HPM_P2
2022/09/19 00:00:35;;;;;;;23.10;3.57;;;;;;;;;;5050356;28;20582;-64
2022/09/19 00:03:02;;;;;;;30.47;3.93;;;;;;;;;;5050477;28;20144;-64
2022/09/19 00:05:28;;;;;;;34.50;3.47;;;;;;;;;;5050625;28;20144;-64
2022/09/19 00:07:55;;;;;;;17.73;2.63;;;;;;;;;;5050397;28;20060;-63
2022/09/19 00:10:21;;;;;;;23.17;2.20;;;;;;;;;;5049764;28;20057;-64
2022/09/19 00:12:47;;;;;;;13.03;2.23;;;;;;;;;;5050017;28;20049;-64
2022/09/19 00:15:13;;;;;;;15.53;2.03;;;;;;;;;;5049044;28;20398;-64
2022/09/19 00:17:39;;;;;;;125.73;6.77;;;;;;;;;;5050018;28;20048;-65
2022/09/19 00:20:06;;;;;;;16.87;2.17;;;;;;;;;;5048650;28;20044;-64
2022/09/19 00:22:32;;;;;;;23.13;1.67;;;;;;;;;;5049935;28;20067;-64
2022/09/19 00:24:59;;;;;;;14.93;1.87;;;;;;;;;;5049341;28;20519;-64
2022/09/19 00:27:26;;;;;;;13.13;1.80;;;;;;;;;;5050513;28;20399;-64
2022/09/19 00:29:53;;;;;;;12.60;1.33;;;;;;;;;;5050131;28;20057;-63
2022/09/19 00:32:23;;;;;;;11.03;2.00;;;;;;;;;;5050378;28;20493;-63
2022/09/19 00:34:50;;;;;;;8.80;1.10;;;;;;;;;;5049251;28;20041;-63
2022/09/19 00:37:20;;;;;;;14.47;1.73;;;;;;;;;;5050012;28;20086;-63
2022/09/19 00:39:46;;;;;;;11.10;2.47;;;;;;;;;;5049341;28;20045;-63
2022/09/19 00:42:17;;;;;;;18.43;2.10;;;;;;;;;;5048928;28;20048;-63
2022/09/19 00:44:43;;;;;;;13.07;2.40;;;;;;;;;;5049652;28;20045;-63
2022/09/19 00:47:12;;;;;;;11.87;2.13;;;;;;;;;;5048995;28;20152;-63
2022/09/19 00:49:40;;;;;;;19.40;3.37;;;;;;;;;;5049584;28;20044;-63
2022/09/19 00:52:13;;;;;;;17.43;2.37;;;;;;;;;;5048941;28;20052;-63
2022/09/19 00:54:40;;;;;;;;;;;;;;;;;;5049781;28;20045;-63
2022/09/19 00:57:07;;;;;;;19.97;3.27;;;;;;;;;;5048879;28;19970;-62
2022/09/19 00:59:37;;;;;;;23.97;2.93;;;;;;;;;;5049564;28;20044;-63
2022/09/19 01:02:04;;;;;;;16.33;3.33;;;;;;;;;;5049353;28;20099;-63
2022/09/19 01:04:35;;;;;;;19.10;3.17;;;;;;;;;;5048638;28;20041;-63
2022/09/19 01:07:04;;;;;;;20.47;4.00;;;;;;;;;;5046640;28;20111;-63
2022/09/19 01:09:43;;;;;;;23.40;2.90;;;;;;;;;;5048971;28;20053;-63
2022/09/19 01:12:21;;;;;;;16.80;3.10;;;;;;;;;;5048693;28;20048;-64
2022/09/19 01:14:56;;;;;;;18.23;3.07;;;;;;;;;;5049417;28;20494;-64
2022/09/19 01:17:28;;;;;;;21.37;3.40;;;;;;;;;;5048543;28;20048;-64
2022/09/19 01:20:00;;;;;;;32.07;3.90;;;;;;;;;;5049069;28;20422;-64
2022/09/19 01:22:43;;;;;;;24.27;3.27;;;;;;;;;;5049202;28;20445;-63
2022/09/19 01:25:15;;;;;;;20.73;3.58;;;;;;;;;;5047612;28;20053;-63
2022/09/19 01:28:10;;;;;;;14.27;3.63;;;;;;;;;;5048682;28;20068;-63
2022/09/19 01:30:39;;;;;;;17.77;2.53;;;;;;;;;;5048392;28;20049;-63
2022/09/19 01:33:09;;;;;;;18.47;2.87;;;;;;;;;;5048384;28;21345;-63
2022/09/19 01:35:40;;;;;;;28.73;4.03;;;;;;;;;;5048587;28;20077;-63
2022/09/19 01:38:09;;;;;;;17.60;4.33;;;;;;;;;;5048545;28;20564;-63
2022/09/19 01:40:36;;;;;;;17.23;3.60;;;;;;;;;;5048375;28;20044;-63
2022/09/19 01:43:05;;;;;;;22.57;4.80;;;;;;;;;;5049039;28;20045;-63
2022/09/19 01:45:36;;;;;;;19.13;3.10;;;;;;;;;;5048752;28;20045;-63
2022/09/19 01:48:07;;;;;;;26.70;3.30;;;;;;;;;;5048254;28;20461;-63
2022/09/19 01:50:39;;;;;;;22.93;3.50;;;;;;;;;;5048088;28;20053;-63
2022/09/19 01:53:23;;;;;;;22.27;3.07;;;;;;;;;;5047953;28;20521;-64
2022/09/19 01:56:08;;;;;;;29.67;5.00;;;;;;;;;;5047965;28;20088;-64
2022/09/19 01:58:50;;;;;;;21.70;3.00;;;;;;;;;;5048873;28;20044;-64
2022/09/19 02:01:23;;;;;;;23.27;3.50;;;;;;;;;;5046955;28;20063;-64
2022/09/19 02:04:04;;;;;;;19.50;3.45;;;;;;;;;;5048371;28;20490;-63
2022/09/19 02:06:43;;;;;;;20.03;3.87;;;;;;;;;;5048400;28;20045;-63
2022/09/19 02:09:29;;;;;;;18.60;2.90;;;;;;;;;;5048050;28;20122;-63
2022/09/19 02:11:59;;;;;;;16.97;3.30;;;;;;;;;;5016431;28;20374;-63
2022/09/19 02:14:27;;;;;;;25.87;3.13;;;;;;;;;;5048335;28;20135;-63
2022/09/19 02:17:03;;;;;;;23.87;3.00;;;;;;;;;;5047808;28;20067;-63
2022/09/19 02:19:32;;;;;;;19.97;3.53;;;;;;;;;;5047661;28;20075;-63
2022/09/19 02:22:10;;;;;;;20.60;3.70;;;;;;;;;;5047827;28;20053;-63
2022/09/19 02:24:38;;;;;;;19.13;3.30;;;;;;;;;;5047795;28;20043;-63
2022/09/19 02:27:08;;;;;;;16.23;2.80;;;;;;;;;;5047860;28;20045;-63
2022/09/19 02:29:36;;;;;;;22.17;2.80;;;;;;;;;;5048009;28;20041;-63
2022/09/19 02:32:03;;;;;;;20.47;2.87;;;;;;;;;;5047909;28;20206;-63
2022/09/19 02:34:29;;;;;;;25.10;2.93;;;;;;;;;;5048016;28;20070;-63
2022/09/19 02:37:08;;;;;;;22.93;3.00;;;;;;;;;;5047414;28;20049;-63
2022/09/19 02:39:41;;;;;;;23.80;3.30;;;;;;;;;;5047827;28;20053;-63
2022/09/19 02:42:30;;;;;;;25.03;3.30;;;;;;;;;;5050513;28;20056;-63
2022/09/19 02:45:02;;;;;;;18.13;2.80;;;;;;;;;;5051352;28;20287;-63
2022/09/19 02:47:41;;;;;;;20.15;2.72;;;;;;;;;;5031773;28;20467;-63
2022/09/19 02:50:07;;;;;;;20.43;4.10;;;;;;;;;;5031094;28;20139;-63
2022/09/19 02:52:34;;;;;;;24.97;3.13;;;;;;;;;;5048447;28;20095;-62
2022/09/19 02:55:03;;;;;;;24.17;3.00;;;;;;;;;;5051774;28;20495;-63
2022/09/19 02:57:30;;;;;;;28.53;3.83;;;;;;;;;;5051615;28;20111;-63
2022/09/19 02:59:58;;;;;;;24.43;3.03;;;;;;;;;;5051017;28;20044;-63
2022/09/19 03:02:33;;;;;;;14.80;3.60;;;;;;;;;;5051796;28;20060;-63
2022/09/19 03:05:02;;;;;;;16.23;3.70;;;;;;;;;;5051341;28;20048;-63
2022/09/19 03:07:33;;;;;;;24.13;3.93;;;;;;;;;;5051529;28;20494;-63
2022/09/19 03:10:08;;;;;;;20.57;2.90;;;;;;;;;;5051545;28;20175;-63
2022/09/19 03:12:41;;;;;;;19.33;2.80;;;;;;;;;;5050795;28;20578;-63
2022/09/19 03:15:08;;;;;;;19.15;3.38;;;;;;;;;;5031336;28;20046;-63
2022/09/19 03:17:46;;;;;;;26.17;3.90;;;;;;;;;;5047290;28;20045;-63
2022/09/19 03:20:14;;;;;;;22.37;3.53;;;;;;;;;;5051442;28;20037;-63
2022/09/19 03:22:40;;;;;;;24.70;2.83;;;;;;;;;;5050894;28;20083;-63
2022/09/19 03:25:08;;;;;;;24.07;3.93;;;;;;;;;;5050473;28;20834;-63
2022/09/19 03:27:36;;;;;;;22.17;3.23;;;;;;;;;;5050627;28;20072;-63
2022/09/19 03:30:04;;;;;;;26.00;3.50;;;;;;;;;;5051266;28;20504;-63
2022/09/19 03:32:30;;;;;;;16.37;3.20;;;;;;;;;;5051432;28;20044;-63
2022/09/19 03:34:56;;;;;;;24.87;3.23;;;;;;;;;;5050834;28;20082;-63
2022/09/19 03:37:23;;;;;;;19.73;3.00;;;;;;;;;;5051405;28;20041;-63
2022/09/19 03:39:49;;;;;;;22.73;2.80;;;;;;;;;;5050563;28;20045;-63
2022/09/19 03:42:15;;;;;;;18.13;3.30;;;;;;;;;;5050148;28;20053;-63
2022/09/19 03:44:41;;;;;;;21.63;4.20;;;;;;;;;;5050962;28;20081;-63
2022/09/19 03:47:09;;;;;;;19.43;4.40;;;;;;;;;;5050546;28;20044;-63
2022/09/19 03:49:35;;;;;;;30.07;3.90;;;;;;;;;;5050341;28;20048;-63
2022/09/19 03:52:01;;;;;;;25.97;3.90;;;;;;;;;;5050797;28;20055;-62
2022/09/19 03:54:28;;;;;;;23.90;3.53;;;;;;;;;;5050129;28;20049;-63
2022/09/19 03:56:54;;;;;;;16.73;2.63;;;;;;;;;;5050115;28;20053;-63
2022/09/19 03:59:20;;;;;;;27.03;3.37;;;;;;;;;;5045887;28;20495;-63
2022/09/19 04:01:47;;;;;;;24.33;4.20;;;;;;;;;;5029235;28;20072;-63
2022/09/19 04:04:13;;;;;;;21.73;2.90;;;;;;;;;;5030956;28;20127;-64
2022/09/19 04:06:40;;;;;;;23.73;3.40;;;;;;;;;;5046205;28;20132;-64
2022/09/19 04:09:06;;;;;;;23.30;4.17;;;;;;;;;;5049746;28;20096;-64
2022/09/19 04:11:34;;;;;;;22.13;3.60;;;;;;;;;;5049402;28;20071;-63
2022/09/19 04:14:02;;;;;;;18.03;3.57;;;;;;;;;;5049898;28;20136;-63
2022/09/19 04:16:28;;;;;;;27.03;3.77;;;;;;;;;;5050101;28;20052;-64
2022/09/19 04:18:54;;;;;;;29.10;3.63;;;;;;;;;;5049573;28;20041;-63
2022/09/19 04:21:20;;;;;;;28.23;3.40;;;;;;;;;;5050179;28;20525;-63
2022/09/19 04:23:46;;;;;;;22.60;3.17;;;;;;;;;;5050075;28;20049;-63
2022/09/19 04:26:13;;;;;;;22.77;3.80;;;;;;;;;;5049380;28;20049;-63
2022/09/19 04:28:40;;;;;;;22.33;3.60;;;;;;;;;;5050044;28;20132;-63
2022/09/19 04:31:08;;;;;;;31.47;4.53;;;;;;;;;;5049677;28;20051;-63
2022/09/19 04:33:36;;;;;;;22.67;4.23;;;;;;;;;;5049843;28;20049;-63
2022/09/19 04:36:02;;;;;;;29.43;4.37;;;;;;;;;;5049833;28;20044;-63
2022/09/19 04:38:30;;;;;;;26.90;3.73;;;;;;;;;;5049660;28;20048;-63
2022/09/19 04:40:56;;;;;;;23.27;3.53;;;;;;;;;;5047432;28;20053;-63
2022/09/19 04:43:23;;;;;;;18.20;4.80;;;;;;;;;;5049671;28;20415;-63
2022/09/19 04:45:50;;;;;;;32.10;3.93;;;;;;;;;;5048988;28;20052;-63
2022/09/19 04:48:19;;;;;;;20.70;3.83;;;;;;;;;;5049129;28;20051;-63
2022/09/19 04:50:50;;;;;;;26.97;3.77;;;;;;;;;;5049781;28;20056;-63
2022/09/19 04:53:17;;;;;;;24.83;3.53;;;;;;;;;;5049211;28;20553;-63
2022/09/19 04:55:43;;;;;;;26.60;4.07;;;;;;;;;;5046786;28;20044;-63
2022/09/19 04:58:10;;;;;;;17.47;2.97;;;;;;;;;;5047430;28;20049;-63
2022/09/19 05:00:39;;;;;;;14.17;2.77;;;;;;;;;;5047742;28;20056;-63
2022/09/19 05:03:11;;;;;;;16.67;3.50;;;;;;;;;;5047447;28;20499;-63
2022/09/19 05:05:44;;;;;;;28.03;3.20;;;;;;;;;;5046334;28;20049;-63
2022/09/19 05:08:15;;;;;;;28.00;3.93;;;;;;;;;;5046581;28;20057;-63
2022/09/19 05:10:41;;;;;;;21.07;3.07;;;;;;;;;;5048687;28;20442;-63
2022/09/19 05:13:07;;;;;;;27.60;3.67;;;;;;;;;;5049289;28;20049;-63
2022/09/19 05:15:33;;;;;;;40.07;4.47;;;;;;;;;;5048619;28;20045;-63
2022/09/19 05:18:00;;;;;;;25.90;3.40;;;;;;;;;;5048976;28;20179;-63
2022/09/19 05:20:26;;;;;;;18.53;2.90;;;;;;;;;;5049241;28;20045;-64
2022/09/19 05:22:58;;;;;;;24.10;3.63;;;;;;;;;;5048922;28;20264;-63
2022/09/19 05:25:28;;;;;;;16.48;2.90;;;;;;;;;;5048786;28;20469;-63
2022/09/19 05:27:57;;;;;;;21.80;2.90;;;;;;;;;;5047677;28;20048;-63
2022/09/19 05:30:26;;;;;;;18.97;4.10;;;;;;;;;;5039036;28;20037;-63
2022/09/19 05:32:52;;;;;;;22.07;3.47;;;;;;;;;;5048781;28;20508;-63
2022/09/19 05:35:18;;;;;;;10.17;3.17;;;;;;;;;;5048505;28;20041;-63
2022/09/19 05:37:46;;;;;;;14.87;3.43;;;;;;;;;;5048533;28;20041;-63
2022/09/19 05:40:12;;;;;;;23.00;3.27;;;;;;;;;;5044437;28;20823;-63
2022/09/19 05:42:46;;;;;;;24.60;3.57;;;;;;;;;;5028249;28;20052;-63
2022/09/19 05:45:13;;;;;;;23.57;3.83;;;;;;;;;;5034179;28;20048;-63
2022/09/19 05:47:39;;;;;;;20.10;3.80;;;;;;;;;;5047955;28;20082;-63
2022/09/19 05:50:10;;;;;;;13.70;2.47;;;;;;;;;;5048090;28;20045;-63
2022/09/19 05:55:21;;;;;;;16.20;2.90;;;;;;;;;;5047492;28;20045;-63
2022/09/19 05:57:51;;;;;;;27.00;4.60;;;;;;;;;;5046917;28;20048;-63
2022/09/19 06:00:18;;;;;;;17.10;3.40;;;;;;;;;;5048099;28;20056;-63
2022/09/19 06:02:44;;;;;;;24.67;4.40;;;;;;;;;;5048063;28;20080;-63
2022/09/19 06:05:10;;;;;;;26.50;3.43;;;;;;;;;;5048011;28;20088;-63
2022/09/19 06:07:36;;;;;;;21.97;3.80;;;;;;;;;;5047941;28;20499;-63
2022/09/19 06:10:02;;;;;;;21.87;3.00;;;;;;;;;;5040539;28;20515;-63
2022/09/19 06:12:28;;;;;;;20.87;3.50;;;;;;;;;;5046485;28;20087;-63
2022/09/19 06:14:54;;;;;;;21.27;3.17;;;;;;;;;;5047984;28;20052;-63
2022/09/19 06:17:20;;;;;;;32.17;3.80;;;;;;;;;;5046563;28;20037;-63
2022/09/19 06:19:46;;;;;;;25.40;3.80;;;;;;;;;;5028312;28;20840;-63
2022/09/19 06:22:12;;;;;;;18.83;4.20;;;;;;;;;;5027962;28;20041;-62
2022/09/19 06:24:38;;;;;;;18.30;2.90;;;;;;;;;;5033894;28;20120;-63
2022/09/19 06:27:04;;;;;;;16.97;3.60;;;;;;;;;;5047721;28;20128;-63
2022/09/19 06:29:30;;;;;;;16.73;3.80;;;;;;;;;;5046944;28;20052;-63
2022/09/19 06:31:56;;;;;;;25.10;3.80;;;;;;;;;;5041047;28;20052;-63
2022/09/19 06:34:22;;;;;;;15.50;3.13;;;;;;;;;;5047710;28;20059;-63
2022/09/19 06:36:48;;;;;;;18.83;3.50;;;;;;;;;;5046895;28;20503;-63
2022/09/19 06:39:14;;;;;;;14.27;2.97;;;;;;;;;;5047746;28;20107;-63
2022/09/19 06:41:40;;;;;;;21.83;3.93;;;;;;;;;;5047714;28;20049;-63
2022/09/19 06:44:07;;;;;;;19.20;3.57;;;;;;;;;;5047196;28;20114;-63
2022/09/19 06:46:37;;;;;;;19.93;2.80;;;;;;;;;;5047641;28;20068;-63
2022/09/19 06:49:03;;;;;;;14.27;2.67;;;;;;;;;;5046988;28;20595;-63
2022/09/19 06:51:29;;;;;;;19.67;3.13;;;;;;;;;;5047737;28;20045;-63
2022/09/19 06:53:55;;;;;;;19.37;3.33;;;;;;;;;;5047584;28;20458;-63
2022/09/19 06:56:21;;;;;;;19.47;3.20;;;;;;;;;;5047631;28;20449;-63
2022/09/19 06:58:47;;;;;;;17.57;2.80;;;;;;;;;;5046304;28;20489;-63
2022/09/19 07:01:15;;;;;;;16.83;2.80;;;;;;;;;;5046776;28;20095;-63
2022/09/19 07:03:41;;;;;;;17.37;2.70;;;;;;;;;;5039403;28;20106;-63
2022/09/19 07:06:07;;;;;;;22.20;2.57;;;;;;;;;;5047564;28;20044;-63
2022/09/19 07:08:34;;;;;;;21.67;3.20;;;;;;;;;;5045818;28;20057;-63
2022/09/19 07:11:00;;;;;;;12.23;2.70;;;;;;;;;;5047197;28;20392;-63
2022/09/19 07:13:26;;;;;;;20.77;3.00;;;;;;;;;;5047867;28;20116;-63
2022/09/19 07:15:52;;;;;;;19.07;3.20;;;;;;;;;;5044206;28;20525;-63
2022/09/19 07:18:18;;;;;;;13.27;2.43;;;;;;;;;;5045574;28;20037;-63
2022/09/19 07:20:44;;;;;;;14.93;2.50;;;;;;;;;;5047702;28;20056;-63
2022/09/19 07:23:14;;;;;;;15.33;2.00;;;;;;;;;;5039545;28;20525;-63
2022/09/19 07:25:41;;;;;;;18.20;2.60;;;;;;;;;;5026535;28;20052;-63
2022/09/19 07:28:09;;;;;;;20.10;2.70;;;;;;;;;;5027433;28;20128;-63
2022/09/19 07:30:36;;;;;;;10.17;1.77;;;;;;;;;;5030756;28;20165;-63
2022/09/19 07:33:03;;;;;;;15.10;2.27;;;;;;;;;;5050737;28;20119;-63
2022/09/19 07:35:30;;;;;;;20.97;2.80;;;;;;;;;;5047533;28;20138;-63
2022/09/19 07:37:56;;;;;;;18.83;3.03;;;;;;;;;;5035142;28;20076;-63
2022/09/19 07:40:23;;;;;;;15.20;2.23;;;;;;;;;;5056269;28;20098;-63
2022/09/19 07:42:50;;;;;;;10.60;1.93;;;;;;;;;;5050832;28;20045;-63
2022/09/19 07:45:17;;;;;;;14.10;2.10;;;;;;;;;;5050380;28;20049;-64
2022/09/19 07:47:43;;;;;;;16.60;2.87;;;;;;;;;;5050040;28;20098;-64
2022/09/19 07:50:10;;;;;;;16.00;2.10;;;;;;;;;;5045932;28;20591;-64
2022/09/19 07:52:36;;;;;;;10.50;1.83;;;;;;;;;;5042195;28;20123;-64
2022/09/19 07:55:02;;;;;;;13.20;1.70;;;;;;;;;;5035249;28;20419;-64
2022/09/19 07:57:29;;;;;;;14.90;1.97;;;;;;;;;;5044447;28;20041;-64
2022/09/19 07:59:55;;;;;;;15.03;1.90;;;;;;;;;;5031242;28;20053;-64
2022/09/19 08:02:21;;;;;;;11.93;1.90;;;;;;;;;;5043582;28;20055;-64
2022/09/19 08:04:48;;;;;;;20.13;2.47;;;;;;;;;;5045263;28;20414;-64
2022/09/19 08:07:14;;;;;;;13.33;2.10;;;;;;;;;;5044656;28;20041;-64
2022/09/19 08:09:40;;;;;;;12.60;3.00;;;;;;;;;;5046459;28;20084;-64
2022/09/19 08:12:12;;;;;;;14.23;2.37;;;;;;;;;;5049914;28;20063;-64
2022/09/19 08:14:38;;;;;;;16.70;2.13;;;;;;;;;;5030130;28;20511;-64
2022/09/19 08:17:04;;;;;;;11.27;2.63;;;;;;;;;;5044574;28;20448;-64
2022/09/19 08:19:31;;;;;;;20.20;2.57;;;;;;;;;;5037968;28;20040;-64
2022/09/19 08:21:57;;;;;;;14.30;1.80;;;;;;;;;;5040688;28;20064;-64
2022/09/19 08:24:24;;;;;;;11.20;2.07;;;;;;;;;;5048827;28;20461;-64
2022/09/19 08:26:50;;;;;;;14.30;1.70;;;;;;;;;;5045003;28;20136;-64
2022/09/19 08:29:16;;;;;;;17.67;3.33;;;;;;;;;;5047877;28;20568;-64
2022/09/19 08:31:42;;;;;;;13.93;1.97;;;;;;;;;;5043326;28;20129;-64
2022/09/19 08:34:09;;;;;;;16.03;3.17;;;;;;;;;;5046072;28;20449;-64
2022/09/19 08:36:36;;;;;;;16.47;1.93;;;;;;;;;;5042367;28;20073;-64
2022/09/19 08:39:02;;;;;;;8.67;2.20;;;;;;;;;;5048613;28;20479;-64
2022/09/19 08:41:41;;;;;;;12.73;2.07;;;;;;;;;;5032185;28;20144;-64
2022/09/19 08:44:19;;;;;;;13.53;1.97;;;;;;;;;;5031645;28;20128;-64
2022/09/19 08:46:52;;;;;;;10.10;1.50;;;;;;;;;;5033208;28;20131;-64
2022/09/19 08:49:21;;;;;;;8.10;1.70;;;;;;;;;;5049466;28;20442;-64
2022/09/19 08:51:51;;;;;;;8.40;1.50;;;;;;;;;;5043135;28;20056;-64
2022/09/19 08:54:18;;;;;;;10.50;1.63;;;;;;;;;;5043350;28;20044;-64
2022/09/19 08:56:45;;;;;;;10.20;1.70;;;;;;;;;;5045216;28;20045;-64
2022/09/19 08:59:13;;;;;;;10.63;2.27;;;;;;;;;;5029163;28;20473;-64
2022/09/19 09:01:40;;;;;;;10.73;1.90;;;;;;;;;;5048788;28;20053;-64
2022/09/19 09:04:16;;;;;;;11.63;1.57;;;;;;;;;;5048019;28;20045;-64
2022/09/19 09:06:42;;;;;;;9.93;1.30;;;;;;;;;;5027531;28;20103;-64
2022/09/19 09:09:11;;;;;;;11.03;1.90;;;;;;;;;;5027902;28;20057;-64
2022/09/19 09:11:40;;;;;;;7.63;1.97;;;;;;;;;;5028398;28;20053;-64
2022/09/19 09:14:12;;;;;;;10.20;2.30;;;;;;;;;;5029108;28;20119;-64
2022/09/19 09:16:38;;;;;;;10.70;1.47;;;;;;;;;;5048933;28;20418;-64
2022/09/19 09:19:07;;;;;;;10.03;1.63;;;;;;;;;;5048376;28;20445;-64
2022/09/19 09:21:42;;;;;;;12.17;2.17;;;;;;;;;;5046038;28;20121;-64
2022/09/19 09:24:15;;;;;;;13.03;1.90;;;;;;;;;;5047550;28;20063;-64
2022/09/19 09:26:43;;;;;;;17.20;2.20;;;;;;;;;;5048320;28;20056;-64
2022/09/19 09:29:12;;;;;;;9.10;1.57;;;;;;;;;;5048041;28;20044;-64
2022/09/19 09:31:58;;;;;;;8.50;1.50;;;;;;;;;;5048671;28;20136;-64
2022/09/19 09:34:30;;;;;;;9.10;1.83;;;;;;;;;;5048158;28;20048;-63
2022/09/19 09:37:04;;;;;;;14.97;2.37;;;;;;;;;;5048251;28;20049;-64
2022/09/19 09:39:49;;;;;;;9.10;2.70;;;;;;;;;;5045495;28;20067;-64
2022/09/19 09:42:17;;;;;;;12.10;2.00;;;;;;;;;;5047862;28;20052;-64
2022/09/19 09:44:58;;;;;;;14.50;1.90;;;;;;;;;;5048176;28;20049;-64
2022/09/19 09:47:30;;;;;;;12.47;2.27;;;;;;;;;;5048806;28;20049;-61
2022/09/19 09:50:04;;;;;;;12.57;2.23;;;;;;;;;;5029912;28;20132;-61
2022/09/19 09:52:35;;;;;;;16.27;3.20;;;;;;;;;;5027777;28;20649;-62
2022/09/19 09:58:08;;;;;;;11.27;2.13;;;;;;;;;;5039928;28;20044;-62
2022/09/19 10:03:34;;;;;;;13.73;2.57;;;;;;;;;;5047856;28;20049;-63
2022/09/19 10:06:11;;;;;;;12.70;2.57;;;;;;;;;;5047880;28;20486;-63
2022/09/19 10:08:43;;;;;;;11.23;2.13;;;;;;;;;;5046480;28;20061;-62
2022/09/19 10:11:15;;;;;;;9.73;2.47;;;;;;;;;;5046919;28;20056;-62
2022/09/19 10:13:46;;;;;;;9.50;1.90;;;;;;;;;;5048214;28;20049;-62
2022/09/19 10:16:17;;;;;;;15.87;2.00;;;;;;;;;;5047758;28;20045;-62
2022/09/19 10:18:45;;;;;;;11.47;2.23;;;;;;;;;;5047968;28;20391;-62
2022/09/19 10:21:11;;;;;;;16.93;2.87;;;;;;;;;;5047711;28;20098;-62
2022/09/19 10:23:42;;;;;;;10.87;1.40;;;;;;;;;;5047972;28;20182;-62
2022/09/19 10:26:14;;;;;;;11.73;1.97;;;;;;;;;;5047193;28;20471;-62
2022/09/19 10:28:49;;;;;;;13.57;2.03;;;;;;;;;;5047830;28;20049;-62
2022/09/19 10:31:25;;;;;;;9.33;1.77;;;;;;;;;;5047345;28;20397;-64
2022/09/19 10:33:52;;;;;;;27.27;3.40;;;;;;;;;;5047328;28;20242;-66
2022/09/19 10:36:20;;;;;;;14.83;2.20;;;;;;;;;;5047826;28;20128;-65
2022/09/19 10:38:54;;;;;;;5.80;1.30;;;;;;;;;;5047707;28;20126;-65
2022/09/19 10:41:22;;;;;;;11.53;1.47;;;;;;;;;;5046868;28;20045;-64
2022/09/19 10:43:52;;;;;;;9.43;1.50;;;;;;;;;;5048010;28;20056;-64
2022/09/19 10:46:22;;;;;;;14.40;2.40;;;;;;;;;;5046686;28;20098;-64
2022/09/19 10:48:53;;;;;;;6.10;1.30;;;;;;;;;;5047286;28;20089;-64
2022/09/19 10:51:20;;;;;;;30.43;3.57;;;;;;;;;;5047517;28;20052;-64
2022/09/19 10:53:48;;;;;;;87.40;7.80;;;;;;;;;;5045748;28;20041;-64
2022/09/19 10:56:28;;;;;;;6.50;1.60;;;;;;;;;;5047560;28;20419;-64
2022/09/19 10:59:01;;;;;;;21.40;2.53;;;;;;;;;;5047456;28;20406;-64
2022/09/19 11:01:27;;;;;;;15.10;2.22;;;;;;;;;;5027884;28;20063;-64
2022/09/19 11:04:21;;;;;;;20.43;2.53;;;;;;;;;;5031272;28;20052;-64
2022/09/19 11:06:56;;;;;;;15.87;2.53;;;;;;;;;;5031007;28;20056;-62
2022/09/19 11:09:25;;;;;;;10.23;2.83;;;;;;;;;;5031429;28;20091;-62
2022/09/19 11:11:52;;;;;;;9.50;1.93;;;;;;;;;;5031120;28;20077;-62
2022/09/19 11:14:29;;;;;;;10.50;2.00;;;;;;;;;;5035441;28;20041;-64
2022/09/19 11:17:13;;;;;;;9.90;1.60;;;;;;;;;;5050901;28;20136;-64
2022/09/19 11:19:48;;;;;;;11.37;2.43;;;;;;;;;;5050993;28;20045;-62
2022/09/19 11:22:17;;;;;;;7.30;1.80;;;;;;;;;;5051146;28;20095;-61
2022/09/19 11:24:54;;;;;;;7.27;1.60;;;;;;;;;;5050785;28;20053;-62
2022/09/19 11:27:25;;;;;;;7.10;1.40;;;;;;;;;;5050840;28;20049;-61
2022/09/19 11:30:08;;;;;;;7.60;1.93;;;;;;;;;;5049771;28;20045;-62
2022/09/19 11:32:47;;;;;;;9.00;2.08;;;;;;;;;;5050622;28;20045;-62
2022/09/19 11:35:28;;;;;;;12.23;2.17;;;;;;;;;;5050822;28;20063;-62
2022/09/19 11:38:15;;;;;;;11.37;2.00;;;;;;;;;;5050578;28;20072;-62
2022/09/19 11:41:00;;;;;;;10.23;3.07;;;;;;;;;;5050674;28;20418;-62
2022/09/19 11:43:49;;;;;;;10.10;2.70;;;;;;;;;;5050287;28;20541;-62
2022/09/19 11:46:30;;;;;;;8.33;1.93;;;;;;;;;;5041994;28;20143;-61
2022/09/19 11:48:58;;;;;;;8.23;1.63;;;;;;;;;;5050262;28;20533;-61
2022/09/19 11:51:43;;;;;;;11.47;1.80;;;;;;;;;;5050287;28;20472;-61
2022/09/19 11:54:19;;;;;;;10.03;1.60;;;;;;;;;;5049750;28;20519;-64
2022/09/19 11:56:51;;;;;;;10.43;1.40;;;;;;;;;;5050436;28;20060;-64
2022/09/19 11:59:37;;;;;;;11.25;1.38;;;;;;;;;;5049748;28;20494;-64
2022/09/19 12:02:10;;;;;;;8.20;1.60;;;;;;;;;;5049625;28;20377;-64
2022/09/19 12:04:48;;;;;;;19.48;2.78;;;;;;;;;;5028380;28;20077;-64
2022/09/19 12:07:14;;;;;;;23.67;2.03;;;;;;;;;;5027435;28;20487;-64
2022/09/19 12:09:46;;;;;;;15.63;2.60;;;;;;;;;;5029419;28;20499;-64
2022/09/19 12:12:16;;;;;;;16.37;1.70;;;;;;;;;;5036743;28;20041;-63
2022/09/19 12:14:49;;;;;;;14.87;2.77;;;;;;;;;;5049470;28;20041;-64
2022/09/19 12:17:27;;;;;;;11.20;1.70;;;;;;;;;;5048209;28;20135;-63
2022/09/19 12:19:57;;;;;;;13.23;1.60;;;;;;;;;;5049911;28;20049;-63
2022/09/19 12:22:26;;;;;;;14.57;1.60;;;;;;;;;;5049937;28;20052;-63
2022/09/19 12:25:01;;;;;;;22.33;2.63;;;;;;;;;;5049032;28;20041;-64
2022/09/19 12:27:37;;;;;;;10.60;1.80;;;;;;;;;;5049670;28;20040;-63
2022/09/19 12:30:13;;;;;;;8.30;1.60;;;;;;;;;;5049874;28;20124;-63
2022/09/19 12:32:51;;;;;;;13.80;1.93;;;;;;;;;;5048440;28;20048;-63
2022/09/19 12:35:20;;;;;;;10.80;1.87;;;;;;;;;;5049460;28;20056;-63
2022/09/19 12:37:50;;;;;;;31.53;4.23;;;;;;;;;;5049199;28;20056;-63
2022/09/19 12:40:29;;;;;;;51.63;4.93;;;;;;;;;;5049409;28;20507;-63
2022/09/19 12:43:19;;;;;;;52.93;6.43;;;;;;;;;;5049271;28;20071;-63
2022/09/19 12:45:59;;;;;;;127.57;12.67;;;;;;;;;;5047254;28;20048;-63
2022/09/19 12:48:33;;;;;;;350.57;30.03;;;;;;;;;;5049328;28;20047;-63
2022/09/19 12:51:02;;;;;;;326.83;22.17;;;;;;;;;;5048357;28;20045;-63
2022/09/19 12:53:45;;;;;;;98.37;7.77;;;;;;;;;;5049123;28;20053;-63
2022/09/19 12:56:21;;;;;;;121.70;11.32;;;;;;;;;;5044950;28;20045;-63
2022/09/19 12:59:06;;;;;;;122.60;11.40;;;;;;;;;;5039593;28;20045;-63
2022/09/19 13:01:38;;;;;;;102.33;11.73;;;;;;;;;;5049097;28;20341;-63
2022/09/19 13:04:25;;;;;;;101.57;8.63;;;;;;;;;;5048979;28;20049;-62
2022/09/19 13:06:53;;;;;;;8.50;1.90;;;;;;;;;;5048976;28;20422;-62
2022/09/19 13:09:28;;;;;;;8.77;1.60;;;;;;;;;;5048114;28;20064;-62
2022/09/19 13:12:00;;;;;;;11.47;2.17;;;;;;;;;;5048598;28;20510;-62
2022/09/19 13:14:30;;;;;;;12.43;2.00;;;;;;;;;;5047876;28;20063;-63
2022/09/19 13:25:27;;;;;;;12.17;2.30;;;;;;;;;;5046892;28;20063;-62
2022/09/19 13:28:11;;;;;;;14.73;2.43;;;;;;;;;;5047932;28;20037;-62
2022/09/19 13:30:49;;;;;;;11.03;2.33;;;;;;;;;;5048262;28;20102;-62
2022/09/19 13:33:21;;;;;;;14.23;1.80;;;;;;;;;;5047650;28;20048;-62
2022/09/19 13:35:49;;;;;;;10.60;2.00;;;;;;;;;;5048537;28;20056;-62
2022/09/19 13:38:35;;;;;;;7.17;1.43;;;;;;;;;;5048212;28;20390;-62
2022/09/19 13:41:10;;;;;;;6.90;1.57;;;;;;;;;;5047737;28;20071;-62
2022/09/19 13:43:41;;;;;;;7.43;2.13;;;;;;;;;;5048018;28;20529;-61
2022/09/19 13:46:26;;;;;;;6.73;1.63;;;;;;;;;;5048050;28;20044;-61
2022/09/19 13:48:58;;;;;;;5.00;0.93;;;;;;;;;;5047644;28;20356;-61
2022/09/19 13:51:31;;;;;;;4.78;1.65;;;;;;;;;;5048263;28;20048;-61
2022/09/19 13:54:16;;;;;;;5.07;1.27;;;;;;;;;;5047567;28;20296;-61
2022/09/19 13:56:43;;;;;;;3.93;1.13;;;;;;;;;;5046873;28;20572;-61
2022/09/19 13:59:19;;;;;;;5.17;1.37;;;;;;;;;;5048471;28;20486;-61
2022/09/19 14:01:57;;;;;;;7.23;1.30;;;;;;;;;;5046570;28;20510;-60
2022/09/19 14:07:14;;;;;;;5.73;1.70;;;;;;;;;;5048440;28;20451;-61
2022/09/19 14:09:42;;;;;;;7.57;2.28;;;;;;;;;;5048478;28;20059;-61
2022/09/19 14:12:27;;;;;;;5.00;1.40;;;;;;;;;;5047347;28;20135;-60
2022/09/19 14:14:53;;;;;;;9.37;2.00;;;;;;;;;;5045051;28;20094;-61
2022/09/19 14:17:19;;;;;;;8.20;2.00;;;;;;;;;;5038415;28;20104;-61
2022/09/19 14:19:48;;;;;;;10.23;2.93;;;;;;;;;;5039287;28;20443;-60
2022/09/19 14:22:35;;;;;;;11.53;2.50;;;;;;;;;;5042221;28;20440;-60
2022/09/19 14:25:10;;;;;;;8.67;1.97;;;;;;;;;;5044163;28;20045;-60
2022/09/19 14:27:58;;;;;;;9.00;2.23;;;;;;;;;;5048676;28;20136;-59
2022/09/19 14:30:40;;;;;;;7.73;1.73;;;;;;;;;;5047745;28;20049;-59
2022/09/19 14:33:20;;;;;;;9.60;1.97;;;;;;;;;;5048196;28;20084;-59
2022/09/19 14:35:48;;;;;;;7.17;1.93;;;;;;;;;;5041750;28;20041;-59
2022/09/19 14:38:18;;;;;;;11.23;1.70;;;;;;;;;;5030991;28;20088;-59
2022/09/19 14:40:45;;;;;;;14.43;2.20;;;;;;;;;;5032326;28;20049;-59
2022/09/19 14:43:11;;;;;;;9.00;1.70;;;;;;;;;;5033839;28;20045;-59
2022/09/19 14:45:56;;;;;;;10.00;2.40;;;;;;;;;;5050852;28;20091;-59
2022/09/19 14:48:22;;;;;;;12.17;1.80;;;;;;;;;;5051109;28;20059;-59
2022/09/19 14:50:51;;;;;;;9.43;1.77;;;;;;;;;;5051586;28;20060;-59
2022/09/19 14:53:36;;;;;;;8.97;2.13;;;;;;;;;;5051353;28;20056;-59
2022/09/19 14:56:11;;;;;;;7.97;1.90;;;;;;;;;;5051650;28;20091;-59
2022/09/19 14:58:37;;;;;;;11.40;2.00;;;;;;;;;;5051697;28;20191;-60
2022/09/19 15:01:05;;;;;;;7.20;1.50;;;;;;;;;;5050529;28;20458;-59
2022/09/19 15:03:41;;;;;;;9.13;2.57;;;;;;;;;;5051920;28;20076;-60
2022/09/19 15:06:17;;;;;;;7.10;1.50;;;;;;;;;;5051449;28;20068;-59
2022/09/19 15:08:48;;;;;;;11.20;2.00;;;;;;;;;;5051159;28;20095;-59
2022/09/19 15:11:17;;;;;;;8.33;2.00;;;;;;;;;;5051382;28;20053;-59